»·PEaware :: N520ER KSNA-KVCV

N520ER :: KSNA-KVCV

FLIGHT INFORMATION

Flight Status: Arrived
Operator: Privately registered:
United States
More flights under this callsign
Pilot: Thomas Carkin (10835)
Aircraft: CESSNA 172 SKYHAWK
(C172)
More flights by this aircraft type
Origin: KSNA John Wayne-Orange Co
United States
Destination: KVCV Socal Logistics
United States
More flights between these airports :: More routes between these airports
Route: +
File this flight plan on PilotEdge
Remarks:
Altitude:
(Current/Filed)
5,500ft
Speed:
(Current/Filed)
0kts
Departed: 10-Aug-17 07:04 PM
Arrived: 10-Aug-17 07:46 PM
Distance/Time
Traveled:
60nm/0:41
Distance/Time
To Go:
Arrived

Flight Plot

Page will automatically refresh every two minutes.


Map Options




Map Legend


Flown Route
Filed Route
Departure Airport
Arrival Airport
Navaid (VOR, NDB)
Fix

Horizontal Profiles

Position Reports

Time Latitude Longitude Heading Altitude Ground
Speed
10-Aug-17 18:56 33.676256 -117.870869 206 60ft 0kts
10-Aug-17 18:57 33.676256 -117.870869 206 60ft 0kts
10-Aug-17 18:58 33.676256 -117.870869 206 60ft 0kts
10-Aug-17 18:59 33.676256 -117.870869 206 60ft 0kts
10-Aug-17 19:00 33.676256 -117.870869 206 60ft 0kts
10-Aug-17 19:01 33.676251 -117.870872 206 60ft 0kts
10-Aug-17 19:02 33.676515 -117.869823 28 60ft 9kts
10-Aug-17 19:03 33.679674 -117.867939 21 60ft 14kts
10-Aug-17 19:04 33.681236 -117.866430 119 60ft 0kts
10-Aug-17 19:05 33.681236 -117.866430 119 60ft 0kts
10-Aug-17 19:06 33.680567 -117.864898 115 60ft 13kts
10-Aug-17 19:07 33.669946 -117.869362 193 362ft 64kts
10-Aug-17 19:08 33.671465 -117.855167 30 950ft 84kts
10-Aug-17 19:09 33.690421 -117.840084 30 1651ft 76kts
10-Aug-17 19:10 33.710214 -117.826996 23 2188ft 86kts
10-Aug-17 19:11 33.731608 -117.813388 23 2787ft 86kts
10-Aug-17 19:12 33.751673 -117.800546 22 3383ft 82kts
10-Aug-17 19:13 33.772489 -117.787168 22 3932ft 85kts
10-Aug-17 19:14 33.793495 -117.781365 351 4513ft 74kts
10-Aug-17 19:15 33.814492 -117.781877 351 4975ft 80kts
10-Aug-17 19:16 33.838360 -117.782342 353 5423ft 88kts
10-Aug-17 19:17 33.867070 -117.782952 355 5509ft 124kts
10-Aug-17 19:18 33.901153 -117.783371 355 5494ft 116kts
10-Aug-17 19:19 33.932289 -117.783994 355 5497ft 109kts
10-Aug-17 19:20 33.961810 -117.784627 354 5505ft 106kts
10-Aug-17 19:21 33.991073 -117.785246 354 5512ft 104kts
10-Aug-17 19:22 34.020862 -117.785925 354 5524ft 112kts
10-Aug-17 19:23 34.052630 -117.786577 354 5528ft 115kts
10-Aug-17 19:24 34.082217 -117.778323 68 5532ft 121kts
10-Aug-17 19:25 34.087215 -117.738428 84 5529ft 121kts
10-Aug-17 19:26 34.091971 -117.698226 84 5523ft 121kts
10-Aug-17 19:27 34.096888 -117.658031 84 5517ft 121kts
10-Aug-17 19:28 34.101947 -117.618035 84 5508ft 120kts
10-Aug-17 19:29 34.107149 -117.578245 84 5504ft 119kts
10-Aug-17 19:30 34.112408 -117.538645 84 5505ft 119kts
10-Aug-17 19:31 34.117671 -117.499390 84 5505ft 119kts
10-Aug-17 19:32 34.138670 -117.475406 7 5506ft 119kts
10-Aug-17 19:33 34.171312 -117.468116 6 5505ft 119kts
10-Aug-17 19:34 34.203853 -117.460866 6 5505ft 119kts
10-Aug-17 19:35 34.236572 -117.453576 6 5505ft 120kts
10-Aug-17 19:36 34.269342 -117.446384 6 5515ft 119kts
10-Aug-17 19:37 34.302087 -117.439482 7 5528ft 120kts
10-Aug-17 19:38 34.335390 -117.432813 7 5489ft 125kts
10-Aug-17 19:39 34.369503 -117.426410 7 5490ft 123kts
10-Aug-17 19:40 34.403381 -117.420488 7 5438ft 127kts
10-Aug-17 19:41 34.439338 -117.414498 6 4760ft 132kts
10-Aug-17 19:42 34.475842 -117.408460 6 4068ft 133kts
10-Aug-17 19:43 34.511332 -117.401231 8 3878ft 124kts
10-Aug-17 19:44 34.544890 -117.394350 9 3883ft 121kts
10-Aug-17 19:45 34.574269 -117.378971 47 3933ft 109kts
10-Aug-17 19:46 34.596263 -117.354024 47 3882ft 100kts
10-Aug-17 19:47 34.618000 -117.340993 317 3375ft 89kts
10-Aug-17 19:48 34.609456 -117.356272 216 3124ft 63kts
10-Aug-17 19:49 34.597805 -117.369702 221 2888ft 35kts
10-Aug-17 19:50 34.594257 -117.372721 180 2888ft 4kts
10-Aug-17 19:51 34.592777 -117.372929 216 2888ft 12kts
10-Aug-17 19:52 34.589605 -117.374607 159 2888ft 8kts
10-Aug-17 19:53 34.589292 -117.374364 136 2888ft 0kts
10-Aug-17 19:54 34.589292 -117.374364 136 2888ft 0kts

Navigation Log

Ident Type
1. KSNA Airport
2. KVCV Airport